Bezoek ook deze websites:

Weerstation Noordbergum

Weerstation in Leuven


U vindt ons ook hier:

Weather Underground


METAR rapporten vliegvelden

   
EHGG - Groningen/Eelde, Netherlands
Afstand tot: ONO 18 km
Gewijzigd: 28-05-2022 08:55
Bewolking  
Bewolking  
   Wind: NW 22.2 km/h
Wind: NW 22.2 km/h
Temperatuur: 12°C
Dauwpunt: 7°C
Vochtigheid: 72%
Barometer: 1019 hPa
Bewolking: Bewolking
Zicht: meer dan 10 km
Bewolking: Grotendeels bewolkt 4300 ft,
Bewolking 4700 ft
EHGG 280655Z AUTO 31012KT 270V360 9999 BKN043 OVC047 12/07 Q1019 NOSIG
EHLW - Leeuwarden Rnlaf, Netherlands
Afstand tot: WNW 45 km
Gewijzigd: 28-05-2022 09:12
Grotendeels bewolkt  
Grotendeels bewolkt  
   Wind: NW 33.3 km/h
Wind: NW 33.3 km/h
Temperatuur: 12°C
Dauwpunt: 7°C
Vochtigheid: 72%
Barometer: 1020 hPa
Bewolking: Grotendeels bewolkt
Zicht: meer dan 10 km
Bewolking: Licht bewolkt 2300 ft,
Gedeeltelijk bewolkt 2700 ft,
Grotendeels bewolkt 4600 ft
EHLW 280712Z AUTO 31018KT 290V360 9999 FEW023 SCT027 BKN046 12/07 Q1020 BLU
EHVL - Vlieland Island, Netherlands
Afstand tot: WNW 98 km
Gewijzigd: 28-05-2022 08:55
Licht bewolkt  
Licht bewolkt  
   Wind: NW 40.7 km/h
Wind: NW 40.7 km/h
Temperatuur: 12°C
Dauwpunt: 7°C
Vochtigheid: 72%
Barometer: 1021 hPa
Bewolking: Licht bewolkt
Zicht: meer dan 10 km
Bewolking: Licht bewolkt 2500 ft
EHVL 280655Z AUTO 32022KT 9999 FEW025 12/07 Q1021 BLU
EHKD - De Kooy (navy), Netherlands
Afstand tot: W 106 km
Gewijzigd: 28-05-2022 09:03
Licht bewolkt  
Licht bewolkt  
   Wind: NW 25.9 km/h<br />Gust to 25.9 km/h
Wind: NW 25.9 km/h
Gust to 25.9 km/h
Temperatuur: 12°C
Dauwpunt: 6°C
Vochtigheid: 67%
Barometer: 1021 hPa
Bewolking: Licht bewolkt
Zicht: meer dan 10 km
Bewolking: Licht bewolkt 2300 ft
EHKD 280703Z AUTO 32014G24KT 270V020 9999 FEW023 12/06 Q1021 BLU NOSIG
EHDL - Deelen Rnlafb, Netherlands
Afstand tot: ZZW 112 km
Gewijzigd: 28-05-2022 08:55
Gedeeltelijk bewolkt  
Gedeeltelijk bewolkt  
   Wind: varieert 20.4 km/h
Wind: varieert 20.4 km/h
Temperatuur: 13°C
Dauwpunt: 6°C
Vochtigheid: 63%
Barometer: 1021 hPa
Bewolking: Gedeeltelijk bewolkt
Zicht: meer dan 10 km
Bewolking: Licht bewolkt 3100 ft,
Gedeeltelijk bewolkt 4200 ft
EHDL 280655Z AUTO VRB11KT 9999 FEW031 SCT042 13/06 Q1021 BLU
EHAM - Amsterdam/Schiph, Netherlands
Afstand tot: ZW 132 km
Gewijzigd: 28-05-2022 08:55
Gedeeltelijk bewolkt  
Gedeeltelijk bewolkt  
   Wind: NNW 25.9 km/h
Wind: NNW 25.9 km/h
Temperatuur: 12°C
Dauwpunt: 5°C
Vochtigheid: 63%
Barometer: 1022 hPa
Bewolking: Gedeeltelijk bewolkt
Zicht: meer dan 10 km
Bewolking: Licht bewolkt 2700 ft,
Gedeeltelijk bewolkt 4400 ft
EHAM 280655Z 33014KT 9999 FEW027 SCT044 12/05 Q1022 NOSIG

Script ontwikkeld door  Saratoga-weather.org Aangepast voor de template door  Weerstation Leuven

Apparatuur in gebruik:

Weerstation
Davis VP2

Weerprogramma
Meteobridge

Weercomputer
TP-link TL-MR3020

Webleverancier
Versio

Davis VP2

Meteobridge

TP-link TL-MR3020

Versio